createdAt,value
2023-05-03T00:01:22.341Z,2.38
2023-05-03T00:05:34.789Z,4.05
2023-05-03T00:09:50.136Z,5.30
2023-05-03T00:14:02.552Z,5.13
2023-05-03T00:18:15.005Z,4.88
2023-05-03T00:22:27.740Z,4.35
2023-05-03T00:26:40.094Z,3.70
2023-05-03T00:30:53.549Z,3.83
2023-05-03T00:35:07.013Z,3.00
2023-05-03T00:39:19.402Z,2.17
2023-05-03T00:43:32.643Z,1.70
2023-05-03T00:47:45.580Z,1.40
2023-05-03T00:51:59.633Z,1.50
2023-05-03T00:56:13.482Z,1.10
2023-05-03T01:00:25.998Z,1.02
2023-05-03T01:04:39.348Z,1.20
2023-05-03T01:09:32.651Z,1.25
2023-05-03T01:13:56.573Z,1.17
2023-05-03T01:18:24.583Z,1.40
2023-05-03T01:22:58.529Z,1.10
2023-05-03T01:27:12.009Z,1.10
2023-05-03T01:31:34.161Z,1.00
2023-05-03T01:36:23.496Z,1.10
2023-05-03T01:40:58.648Z,1.20
2023-05-03T01:45:13.143Z,1.02
2023-05-03T01:49:25.667Z,1.17
2023-05-03T01:53:38.182Z,1.10
2023-05-03T01:57:50.663Z,1.00
2023-05-03T02:02:04.117Z,1.50
2023-05-03T02:06:16.531Z,2.97
2023-05-03T02:10:28.925Z,3.67
2023-05-03T02:14:41.522Z,3.83
2023-05-03T02:18:54.727Z,4.05
2023-05-03T02:23:07.302Z,3.53
2023-05-03T02:27:19.699Z,3.90
2023-05-03T02:31:32.206Z,3.22
2023-05-03T02:35:45.085Z,2.60
2023-05-03T02:39:57.523Z,1.70
2023-05-03T02:44:10.079Z,1.70
2023-05-03T02:48:24.017Z,1.15
2023-05-03T02:52:36.498Z,1.10
2023-05-03T02:56:49.316Z,1.00
2023-05-03T03:01:01.757Z,1.13
2023-05-03T03:05:17.805Z,1.30
2023-05-03T03:09:34.250Z,1.08
2023-05-03T03:13:50.664Z,1.17
2023-05-03T03:18:03.481Z,1.13
2023-05-03T03:22:16.030Z,1.45
2023-05-03T03:26:28.555Z,1.48
2023-05-03T03:30:41.204Z,1.00
2023-05-03T03:35:04.717Z,1.20
2023-05-03T03:39:17.283Z,1.10
2023-05-03T03:43:31.103Z,1.17
2023-05-03T03:47:44.866Z,1.10
2023-05-03T03:51:57.460Z,1.05
2023-05-03T03:56:09.924Z,1.20
2023-05-03T04:00:22.480Z,1.30
2023-05-03T04:04:42.632Z,1.05
2023-05-03T04:08:55.122Z,1.30
2023-05-03T04:13:07.933Z,1.23
2023-05-03T04:17:21.081Z,1.30
2023-05-03T04:21:33.669Z,0.93
2023-05-03T04:25:49.049Z,1.00
2023-05-03T04:30:04.655Z,1.10
2023-05-03T04:34:19.329Z,1.02
2023-05-03T04:38:34.639Z,0.90
2023-05-03T04:42:49.214Z,2.22
2023-05-03T04:47:03.087Z,2.30
2023-05-03T04:51:15.659Z,2.60
2023-05-03T04:55:29.881Z,2.67
2023-05-03T04:59:44.202Z,2.05
2023-05-03T05:03:57.082Z,2.13
2023-05-03T05:08:17.835Z,1.80
2023-05-03T05:12:35.965Z,2.25
2023-05-03T05:16:51.757Z,2.53
2023-05-03T05:21:04.762Z,15.02
2023-05-03T05:25:19.219Z,2.20
2023-05-03T05:29:32.632Z,2.00
2023-05-03T05:33:45.271Z,3.38
2023-05-03T05:37:58.385Z,2.10
2023-05-03T05:42:12.334Z,1.35
2023-05-03T05:46:25.691Z,1.60
2023-05-03T05:50:39.719Z,1.60
2023-05-03T05:54:55.883Z,1.15
2023-05-03T05:59:09.028Z,1.20
2023-05-03T06:03:21.710Z,1.50
2023-05-03T06:07:37.099Z,1.40
2023-05-03T06:11:49.612Z,1.35
2023-05-03T06:16:02.913Z,1.60
2023-05-03T06:20:16.829Z,2.55
2023-05-03T06:24:31.457Z,1.50
2023-05-03T06:28:46.100Z,1.70
2023-05-03T06:32:58.963Z,2.30
2023-05-03T06:37:11.771Z,3.42
2023-05-03T06:41:24.328Z,3.10
2023-05-03T06:45:36.822Z,3.47
2023-05-03T06:49:49.798Z,3.40
2023-05-03T06:54:12.788Z,3.47
2023-05-03T06:58:25.195Z,2.25
2023-05-03T07:02:37.914Z,2.92
2023-05-03T07:06:56.559Z,4.38
2023-05-03T07:11:10.308Z,4.35
2023-05-03T07:15:22.770Z,3.70
2023-05-03T07:19:35.358Z,4.75
2023-05-03T07:23:47.757Z,4.47
2023-05-03T07:28:00.637Z,4.00
2023-05-03T07:32:13.433Z,3.80
2023-05-03T07:36:26.524Z,4.40
2023-05-03T07:40:38.964Z,7.65
2023-05-03T07:44:52.416Z,6.93
2023-05-03T07:49:06.500Z,8.05
2023-05-03T07:53:18.776Z,8.38
2023-05-03T07:57:31.402Z,6.05
2023-05-03T08:01:43.957Z,3.13
2023-05-03T08:05:56.438Z,7.03
2023-05-03T08:10:09.003Z,9.13
2023-05-03T08:14:21.478Z,9.00
2023-05-03T08:18:33.932Z,7.88
2023-05-03T08:22:47.064Z,6.68
2023-05-03T08:26:59.568Z,7.78
2023-05-03T08:31:12.789Z,9.27
2023-05-03T08:35:25.683Z,10.30
2023-05-03T08:39:39.172Z,6.15
2023-05-03T08:43:54.869Z,6.20
2023-05-03T08:48:07.520Z,5.90
2023-05-03T08:52:24.031Z,8.55
2023-05-03T08:56:41.848Z,7.72
2023-05-03T09:00:54.224Z,6.03
2023-05-03T09:05:34.408Z,5.82
2023-05-03T09:09:49.661Z,6.10
2023-05-03T09:14:18.941Z,6.05
2023-05-03T09:18:31.392Z,7.70
2023-05-03T09:22:52.703Z,7.18
2023-05-03T09:27:19.529Z,7.00
2023-05-03T09:31:33.676Z,5.60
2023-05-03T09:36:00.632Z,4.63
2023-05-03T09:40:18.430Z,4.72
2023-05-03T09:44:51.982Z,4.20
2023-05-03T09:49:04.561Z,3.88
2023-05-03T09:53:20.400Z,4.00
2023-05-03T09:57:33.827Z,4.13
2023-05-03T10:01:48.002Z,4.40
2023-05-03T10:06:04.290Z,5.75
2023-05-03T10:10:16.905Z,5.75
2023-05-03T10:14:29.855Z,4.70
2023-05-03T10:18:49.732Z,4.50
2023-05-03T10:23:05.175Z,4.28
2023-05-03T10:27:17.685Z,4.00
2023-05-03T10:31:49.209Z,4.70
2023-05-03T10:36:06.882Z,4.95
2023-05-03T10:40:19.727Z,4.95
2023-05-03T10:44:39.650Z,4.55
2023-05-03T10:49:18.822Z,3.53
2023-05-03T10:53:34.203Z,2.88
2023-05-03T10:57:48.549Z,2.20
2023-05-03T11:02:01.368Z,2.15
2023-05-03T11:06:38.977Z,2.25
2023-05-03T11:10:58.144Z,2.40
2023-05-03T11:15:12.561Z,2.78
2023-05-03T11:19:25.734Z,2.53
2023-05-03T11:23:39.902Z,2.03
2023-05-03T11:27:52.298Z,2.35
2023-05-03T11:32:04.959Z,1.98
2023-05-03T11:36:17.640Z,1.90
2023-05-03T11:40:30.072Z,1.80
2023-05-03T11:44:42.564Z,1.80
2023-05-03T11:48:55.211Z,1.60
2023-05-03T11:53:08.085Z,1.80
2023-05-03T11:57:21.997Z,2.05
2023-05-03T12:01:35.108Z,2.40
2023-05-03T12:05:49.664Z,1.90
2023-05-03T12:15:03.498Z,2.83
2023-05-03T12:19:33.514Z,1.83
2023-05-03T12:23:50.014Z,2.03
2023-05-03T12:32:23.156Z,1.60
2023-05-03T12:36:37.732Z,1.52
2023-05-03T12:40:54.995Z,1.10
2023-05-03T12:45:12.028Z,1.30
2023-05-03T12:49:25.201Z,1.17
2023-05-03T12:53:39.002Z,1.35
2023-05-03T12:58:14.634Z,1.05
2023-05-03T13:06:43.073Z,1.73
2023-05-03T13:10:56.432Z,1.30
2023-05-03T13:15:09.723Z,1.25
2023-05-03T13:19:22.136Z,1.23
2023-05-03T13:23:34.620Z,0.90
2023-05-03T13:27:47.607Z,0.93
2023-05-03T13:32:00.205Z,1.00
2023-05-03T13:36:12.659Z,1.02
2023-05-03T13:40:25.196Z,0.90
2023-05-03T13:44:37.617Z,0.90
2023-05-03T13:48:50.100Z,2.90
2023-05-03T13:53:02.615Z,2.88
2023-05-03T13:57:15.391Z,3.15
2023-05-03T14:01:29.201Z,3.10
2023-05-03T14:05:41.651Z,2.60
2023-05-03T14:09:54.002Z,2.95
2023-05-03T14:14:06.544Z,2.65
2023-05-03T14:18:19.012Z,3.10
2023-05-03T14:22:33.944Z,2.78
2023-05-03T14:26:46.566Z,2.70
2023-05-03T14:30:58.999Z,2.70
2023-05-03T14:35:11.570Z,3.10
2023-05-03T14:39:27.087Z,3.00
2023-05-03T14:43:39.593Z,3.10
2023-05-03T14:47:52.003Z,2.95
2023-05-03T14:52:04.665Z,2.80
2023-05-03T14:56:17.093Z,2.53
2023-05-03T15:00:29.546Z,3.25
2023-05-03T15:04:42.038Z,2.97
2023-05-03T15:08:55.332Z,3.00
2023-05-03T15:13:08.710Z,3.03
2023-05-03T15:17:21.348Z,3.40
2023-05-03T15:21:45.482Z,3.67
2023-05-03T15:26:00.602Z,2.90
2023-05-03T15:30:15.082Z,3.45
2023-05-03T15:34:27.753Z,3.70
2023-05-03T15:38:41.233Z,3.15
2023-05-03T15:42:53.775Z,3.20
2023-05-03T15:47:07.675Z,3.90
2023-05-03T15:51:22.397Z,3.50
2023-05-03T15:55:35.027Z,3.63
2023-05-03T15:59:48.695Z,3.55
2023-05-03T16:04:01.394Z,3.75
2023-05-03T16:08:14.004Z,3.20
2023-05-03T16:12:29.482Z,3.10
2023-05-03T16:16:42.249Z,3.58
2023-05-03T16:20:55.001Z,3.72
2023-05-03T16:25:13.592Z,3.47
2023-05-03T16:29:26.060Z,3.50
2023-05-03T16:33:38.642Z,4.00
2023-05-03T16:37:51.660Z,3.83
2023-05-03T16:42:04.188Z,3.90
2023-05-03T16:46:16.753Z,4.38
2023-05-03T16:50:29.231Z,4.50
2023-05-03T16:54:43.607Z,4.70
2023-05-03T16:58:56.741Z,5.35
2023-05-03T17:03:09.371Z,5.18
2023-05-03T17:07:22.515Z,4.40
2023-05-03T17:11:36.420Z,4.53
2023-05-03T17:15:49.072Z,4.93
2023-05-03T17:20:01.687Z,4.55
2023-05-03T17:24:14.236Z,4.32
2023-05-03T17:28:27.201Z,5.57
2023-05-03T17:32:39.693Z,5.20
2023-05-03T17:36:52.261Z,4.88
2023-05-03T17:41:08.272Z,4.68
2023-05-03T17:45:20.563Z,5.10
2023-05-03T17:49:35.888Z,4.55
2023-05-03T17:53:48.409Z,4.80
2023-05-03T17:58:00.850Z,4.93
2023-05-03T18:02:13.791Z,4.53
2023-05-03T18:06:27.068Z,4.38
2023-05-03T18:10:42.096Z,4.85
2023-05-03T18:14:59.744Z,4.15
2023-05-03T18:19:13.060Z,4.28
2023-05-03T18:23:25.488Z,4.43
2023-05-03T18:27:38.065Z,5.13
2023-05-03T18:31:58.706Z,5.43
2023-05-03T18:36:12.335Z,4.70
2023-05-03T18:40:25.503Z,4.70
2023-05-03T18:44:39.878Z,5.15
2023-05-03T18:48:53.898Z,4.43
2023-05-03T18:53:06.798Z,5.82
2023-05-03T18:57:20.277Z,9.20
2023-05-03T19:01:32.789Z,7.63
2023-05-03T19:05:45.358Z,7.85
2023-05-03T19:09:58.099Z,8.25
2023-05-03T19:14:10.659Z,7.80
2023-05-03T19:18:23.099Z,7.22
2023-05-03T19:22:35.377Z,8.43
2023-05-03T19:26:47.882Z,9.55
2023-05-03T19:31:04.517Z,15.02
2023-05-03T19:35:20.885Z,16.33
2023-05-03T19:39:36.010Z,17.88
2023-05-03T19:43:48.473Z,18.00
2023-05-03T19:48:01.080Z,18.88
2023-05-03T19:52:13.514Z,17.58
2023-05-03T19:56:25.977Z,15.27
2023-05-03T20:00:39.017Z,15.07
2023-05-03T20:04:51.513Z,14.18
2023-05-03T20:09:06.830Z,14.65
2023-05-03T20:13:19.421Z,14.00
2023-05-03T20:17:31.897Z,12.73
2023-05-03T20:21:46.238Z,12.35
2023-05-03T20:26:02.007Z,13.25
2023-05-03T20:30:18.161Z,12.40
2023-05-03T20:34:33.629Z,11.60
2023-05-03T20:38:46.204Z,12.18
2023-05-03T20:42:58.612Z,11.65
2023-05-03T20:47:11.069Z,12.38
2023-05-03T20:51:23.749Z,11.88
2023-05-03T20:55:36.124Z,11.73
2023-05-03T20:59:48.687Z,12.45
2023-05-03T21:04:01.350Z,11.60
2023-05-03T21:08:13.658Z,12.52
2023-05-03T21:12:26.272Z,10.95
2023-05-03T21:16:38.698Z,11.50
2023-05-03T21:20:53.905Z,10.93
2023-05-03T21:25:06.916Z,11.00
2023-05-03T21:29:19.247Z,11.85
2023-05-03T21:33:31.688Z,10.48
2023-05-03T21:37:46.401Z,10.68
2023-05-03T21:41:59.542Z,9.73
2023-05-03T21:46:11.941Z,11.82
2023-05-03T21:50:24.486Z,9.98
2023-05-03T21:54:36.848Z,13.07
2023-05-03T21:58:49.346Z,13.93
2023-05-03T22:03:01.883Z,13.55
2023-05-03T22:07:15.064Z,14.13
2023-05-03T22:11:28.451Z,13.98
2023-05-03T22:15:40.856Z,13.60
2023-05-03T22:19:53.364Z,10.95
2023-05-03T22:24:06.096Z,13.15
2023-05-03T22:28:18.583Z,11.05
2023-05-03T22:32:31.103Z,9.20
2023-05-03T22:36:43.350Z,7.47
2023-05-03T22:40:55.738Z,6.25
2023-05-03T22:45:08.820Z,6.00
2023-05-03T22:49:21.191Z,5.88
2023-05-03T22:53:33.540Z,5.88
2023-05-03T22:57:46.022Z,5.47
2023-05-03T23:01:58.524Z,5.55
2023-05-03T23:06:11.036Z,5.65
2023-05-03T23:10:23.548Z,6.38
2023-05-03T23:14:36.036Z,5.93
2023-05-03T23:18:48.791Z,5.25
2023-05-03T23:23:01.178Z,5.65
2023-05-03T23:27:13.662Z,5.47
2023-05-03T23:31:31.433Z,5.43
2023-05-03T23:35:45.418Z,5.57
2023-05-03T23:39:57.811Z,5.78
2023-05-03T23:44:12.428Z,5.60
2023-05-03T23:48:24.964Z,5.22
2023-05-03T23:52:37.661Z,5.45
2023-05-03T23:56:50.238Z,4.50
